Time;durP1;ratioP1;P1;durP2;ratioP2;P2;SDS_P1;SDS_P2;PMS_P1;PMS_P2;Temp;Humidity;BMP_temperature;BMP_pressure;BME280_temperature;BME280_humidity;BME280_pressure;Samples;Min_cycle;Max_cycle;Signal;HPM_P1;HPM_P2
2024/02/03 08:56:19;;;;;;;3.38;1.05;;;;;;;8.15;81.32;99297.47;5023052;28;20075;-76
2024/02/03 08:58:45;;;;;;;15.05;4.15;;;;;;;8.25;80.22;99284.38;5006613;28;20031;-77
2024/02/03 09:01:10;;;;;;;4.13;1.65;;;;;;;8.42;79.50;99274.59;5005582;28;20081;-75
2024/02/03 09:03:35;;;;;;;2.42;2.33;;;;;;;8.51;78.35;99303.78;5006544;28;20026;-74
2024/02/03 09:06:01;;;;;;;3.95;2.22;;;;;;;8.39;78.17;99316.03;5005311;28;20050;-74
2024/02/03 09:08:26;;;;;;;10.70;2.60;;;;;;;8.26;78.19;99305.03;5004813;28;20030;-74
2024/02/03 09:10:51;;;;;;;9.77;2.38;;;;;;;8.21;77.73;99324.09;5005306;28;20018;-76
2024/02/03 09:13:17;;;;;;;8.88;3.13;;;;;;;8.04;77.69;99325.22;5005343;28;20022;-76
2024/02/03 09:15:42;;;;;;;0.65;0.65;;;;;;;8.06;77.63;99313.13;5004888;28;20053;-76
2024/02/03 09:18:07;;;;;;;15.65;3.45;;;;;;;8.05;76.97;99332.94;5004688;28;20045;-76
2024/02/03 09:20:33;;;;;;;10.00;2.17;;;;;;;7.99;76.19;99316.66;5005051;28;20046;-77
2024/02/03 09:22:58;;;;;;;1.63;1.52;;;;;;;7.71;76.87;99333.44;5004804;28;20030;-76
2024/02/03 09:25:23;;;;;;;4.85;2.90;;;;;;;7.56;76.13;99329.34;5006483;28;20455;-76
2024/02/03 09:27:48;;;;;;;9.30;1.73;;;;;;;7.69;77.76;99327.44;5006238;28;20030;-76
2024/02/03 09:30:14;;;;;;;10.05;0.90;;;;;;;7.86;78.33;99340.13;5006299;28;20026;-75
2024/02/03 09:32:39;;;;;;;9.00;6.05;;;;;;;8.09;77.78;99344.09;5005704;28;20026;-76
2024/02/03 09:35:05;;;;;;;9.75;1.83;;;;;;;8.18;76.97;99327.56;5006128;28;20033;-76
2024/02/03 09:37:31;;;;;;;7.05;3.95;;;;;;;8.35;77.40;99329.03;5004654;28;20014;-75
2024/02/03 09:39:56;;;;;;;7.25;2.15;;;;;;;8.71;76.82;99339.66;5004632;28;20026;-75
2024/02/03 09:42:23;;;;;;;20.83;3.97;;;;;;;8.75;75.18;99330.97;5005328;28;20479;-75
2024/02/03 09:44:48;;;;;;;8.68;2.60;;;;;;;8.84;74.61;99318.72;5005293;28;20025;-75
2024/02/03 09:47:15;;;;;;;24.15;4.13;;;;;;;8.86;74.32;99340.25;5005501;28;20036;-75
2024/02/03 09:49:40;;;;;;;14.63;3.85;;;;;;;8.96;74.01;99346.13;5004343;28;20022;-74
2024/02/03 09:52:13;;;;;;;4.75;2.33;;;;;;;8.94;72.93;99351.34;5004269;28;20058;-77
2024/02/03 09:54:44;;;;;;;3.88;3.05;;;;;;;9.03;72.95;99345.97;5005840;28;20063;-75
2024/02/03 09:57:09;;;;;;;12.13;2.72;;;;;;;9.03;72.71;99348.56;5005624;28;20046;-75
2024/02/03 09:59:35;;;;;;;8.05;3.20;;;;;;;8.92;71.93;99348.78;5003913;28;20023;-76
2024/02/03 10:02:00;;;;;;;10.57;4.20;;;;;;;8.82;71.70;99326.53;5005528;28;20117;-75
2024/02/03 10:04:36;;;;;;;12.35;2.17;;;;;;;8.80;71.79;99342.06;5005781;28;20026;-74
2024/02/03 10:07:02;;;;;;;0.68;0.68;;;;;;;8.74;71.24;99326.66;5004163;28;20018;-74
2024/02/03 10:09:28;;;;;;;5.72;2.13;;;;;;;8.79;70.45;99342.97;5003985;28;20057;-69
2024/02/03 10:11:53;;;;;;;9.10;2.28;;;;;;;8.80;71.78;99346.41;5005351;28;20034;-70
2024/02/03 10:14:19;;;;;;;1.15;0.88;;;;;;;9.00;71.63;99346.03;5005369;28;20026;-67
2024/02/03 10:16:46;;;;;;;4.15;2.60;;;;;;;9.17;71.74;99324.13;5003914;28;20026;-70
2024/02/03 10:19:12;;;;;;;14.88;1.85;;;;;;;9.33;71.09;99347.16;5003720;28;20027;-68
2024/02/03 10:21:37;;;;;;;3.70;1.25;;;;;;;9.49;70.64;99340.75;5005321;28;20033;-68
2024/02/03 10:24:03;;;;;;;8.88;2.88;;;;;;;9.58;69.42;99349.22;5005545;28;20037;-67
2024/02/03 10:26:29;;;;;;;14.20;3.13;;;;;;;9.64;69.68;99342.16;5003973;28;20034;-67
2024/02/03 10:28:54;;;;;;;1.40;1.30;;;;;;;9.83;68.30;99364.22;5005022;28;20022;-67
2024/02/03 10:31:19;;;;;;;8.18;1.50;;;;;;;9.88;67.40;99357.19;5005190;28;20082;-69
2024/02/03 10:33:45;;;;;;;4.93;1.50;;;;;;;9.75;66.84;99335.88;5005133;28;20050;-67
2024/02/03 10:36:11;;;;;;;12.70;3.20;;;;;;;9.76;66.22;99335.00;5005398;28;20024;-68
2024/02/03 10:38:36;;;;;;;1.95;1.10;;;;;;;9.53;66.38;99316.50;5003641;28;20050;-69
2024/02/03 10:41:03;;;;;;;5.60;2.97;;;;;;;9.46;67.61;99335.63;5005307;28;20022;-68
2024/02/03 10:43:34;;;;;;;19.85;6.57;;;;;;;9.38;68.05;99345.28;5005157;28;20031;-68
2024/02/03 10:46:10;;;;;;;23.95;3.80;;;;;;;9.08;67.42;99342.44;5005183;28;20026;-68
2024/02/03 10:48:42;;;;;;;18.08;4.38;;;;;;;8.94;66.79;99343.56;5004692;28;20027;-69
2024/02/03 10:51:12;;;;;;;;;;;;;;;8.74;67.62;99362.06;5005424;28;20080;-68
2024/02/03 10:53:46;;;;;;;2.15;1.00;;;;;;;8.64;68.40;99372.53;5003796;28;19964;-67
2024/02/03 10:56:14;;;;;;;16.55;3.33;;;;;;;8.60;67.94;99359.69;5009248;28;20026;-67
2024/02/03 10:58:40;;;;;;;4.28;1.60;;;;;;;8.62;68.10;99360.53;5007474;28;20030;-69
2024/02/03 11:01:15;;;;;;;4.57;1.88;;;;;;;8.63;67.73;99338.94;5008901;28;20026;-69
2024/02/03 11:03:41;;;;;;;3.92;1.20;;;;;;;8.61;69.17;99356.25;5007429;28;20077;-73
2024/02/03 11:06:07;;;;;;;3.45;2.08;;;;;;;8.57;67.89;99355.44;5007630;28;20018;-71
2024/02/03 11:08:33;;;;;;;0.63;0.60;;;;;;;8.77;68.87;99364.59;5006983;28;20076;-72
2024/02/03 11:10:58;;;;;;;11.68;3.30;;;;;;;8.84;67.92;99378.25;5008755;28;20407;-72
2024/02/03 11:13:25;;;;;;;11.70;3.30;;;;;;;9.04;67.88;99370.97;5008380;28;20034;-71
2024/02/03 11:16:00;;;;;;;8.68;3.78;;;;;;;9.11;66.79;99363.97;5008708;28;20090;-67
2024/02/03 11:18:27;;;;;;;1.70;1.60;;;;;;;9.33;67.26;99365.28;5008259;28;20390;-71
2024/02/03 11:21:05;;;;;;;0.77;0.77;;;;;;;9.67;65.85;99367.16;5008624;28;20022;-73
2024/02/03 11:23:30;;;;;;;7.63;2.58;;;;;;;9.94;65.11;99366.56;5007088;28;20093;-68
2024/02/03 11:25:57;;;;;;;15.23;3.08;;;;;;;10.33;65.08;99389.03;5008237;28;20019;-69
2024/02/03 11:28:23;;;;;;;3.15;1.25;;;;;;;10.49;63.28;99373.97;5008509;28;20042;-68
2024/02/03 11:30:58;;;;;;;4.88;2.40;;;;;;;10.71;62.92;99368.25;5008276;28;20022;-69
2024/02/03 11:33:23;;;;;;;8.60;2.13;;;;;;;10.89;63.25;99378.13;5007949;28;20030;-67
2024/02/03 11:36:03;;;;;;;13.88;2.17;;;;;;;11.14;62.04;99364.50;5008056;28;20076;-68
2024/02/03 11:38:28;;;;;;;1.38;1.10;;;;;;;11.27;61.09;99354.63;5007935;28;20025;-68
2024/02/03 11:40:56;;;;;;;3.55;1.70;;;;;;;11.24;60.52;99362.50;5006446;28;20022;-68
2024/02/03 11:43:22;;;;;;;1.42;1.20;;;;;;;10.30;61.30;99353.66;5006704;28;20034;-70
2024/02/03 11:45:53;;;;;;;3.72;1.42;;;;;;;9.23;63.89;99354.25;5008000;28;20351;-68
2024/02/03 11:48:19;;;;;;;7.65;2.72;;;;;;;8.40;66.40;99379.81;5007597;28;20022;-68
2024/02/03 11:50:44;;;;;;;7.10;1.83;;;;;;;7.86;68.36;99378.88;5006309;28;20027;-68
2024/02/03 11:53:21;;;;;;;5.47;1.48;;;;;;;7.47;70.01;99386.28;5007699;28;20025;-69
2024/02/03 11:55:46;;;;;;;4.80;1.58;;;;;;;7.26;70.90;99365.00;5007759;28;20089;-69
2024/02/03 11:58:11;;;;;;;4.57;0.90;;;;;;;6.98;71.48;99383.38;5007370;28;20043;-69
2024/02/03 12:00:36;;;;;;;4.30;1.33;;;;;;;6.86;72.25;99379.19;5007801;28;20042;-69
2024/02/03 12:03:02;;;;;;;11.70;2.63;;;;;;;6.83;72.53;99395.56;5006086;28;20022;-69
2024/02/03 12:05:28;;;;;;;1.33;1.33;;;;;;;6.68;73.08;99369.03;5005597;28;20123;-68
2024/02/03 12:07:53;;;;;;;6.65;3.00;;;;;;;6.59;73.14;99381.13;5005708;28;20030;-67
2024/02/03 12:10:19;;;;;;;12.80;3.35;;;;;;;6.62;73.40;99402.63;5007770;28;20026;-68
2024/02/03 12:12:45;;;;;;;8.30;2.70;;;;;;;6.60;73.98;99414.66;5005832;28;20113;-68
2024/02/03 12:15:10;;;;;;;5.78;1.90;;;;;;;6.60;73.92;99383.72;5006111;28;20028;-69
2024/02/03 12:17:36;;;;;;;5.47;2.78;;;;;;;6.58;73.93;99395.78;5007459;28;20026;-69
2024/02/03 12:20:01;;;;;;;10.30;1.83;;;;;;;6.56;73.45;99389.78;5006049;28;20076;-69
2024/02/03 12:22:26;;;;;;;2.42;1.73;;;;;;;6.45;74.26;99389.88;5007263;28;20018;-69
2024/02/03 12:24:52;;;;;;;2.42;0.77;;;;;;;6.38;74.15;99399.34;5007326;28;20023;-68
2024/02/03 12:27:20;;;;;;;3.15;0.85;;;;;;;6.43;74.65;99396.75;5007176;28;20031;-70
2024/02/03 12:29:45;;;;;;;7.05;2.38;;;;;;;6.32;74.61;99384.81;5005804;28;20018;-69
2024/02/03 12:32:11;;;;;;;5.15;2.10;;;;;;;6.26;74.60;99389.16;5007120;28;20033;-68
2024/02/03 12:34:37;;;;;;;5.68;1.30;;;;;;;6.17;75.13;99385.75;5007458;28;20391;-69
2024/02/03 12:37:02;;;;;;;13.63;1.30;;;;;;;6.14;75.45;99398.66;5006975;28;20026;-68
2024/02/03 12:39:27;;;;;;;3.40;1.30;;;;;;;6.07;75.48;99408.16;5006994;28;20026;-67
2024/02/03 12:41:53;;;;;;;6.13;2.10;;;;;;;6.05;75.46;99393.56;5007133;28;20062;-67
2024/02/03 12:44:18;;;;;;;1.10;0.57;;;;;;;6.01;75.41;99399.56;5006964;28;20022;-67
2024/02/03 12:46:43;;;;;;;0.77;0.57;;;;;;;6.09;75.70;99394.41;5007093;28;20038;-68
2024/02/03 12:49:09;;;;;;;1.05;0.98;;;;;;;6.03;75.48;99401.28;5006540;28;20505;-68
2024/02/03 12:51:34;;;;;;;0.60;0.60;;;;;;;6.03;75.97;99408.16;5007169;28;20037;-69
2024/02/03 12:54:00;;;;;;;5.40;3.05;;;;;;;6.05;76.06;99429.66;5005346;28;20053;-69
2024/02/03 12:56:25;;;;;;;4.85;1.63;;;;;;;5.98;75.72;99426.22;5009727;28;20034;-68
2024/02/03 12:58:51;;;;;;;2.30;1.08;;;;;;;6.01;75.95;99430.47;5046017;28;20442;-69
2024/02/03 13:01:16;;;;;;;5.13;1.23;;;;;;;5.97;76.05;99434.81;5046158;28;20021;-68
2024/02/03 13:03:42;;;;;;;2.20;1.33;;;;;;;6.02;76.03;99432.22;5045646;28;20022;-69
2024/02/03 13:06:08;;;;;;;13.23;2.30;;;;;;;5.99;76.39;99429.66;5028342;28;20287;-68
2024/02/03 13:08:34;;;;;;;5.10;2.00;;;;;;;5.97;75.81;99419.34;5045735;28;20029;-68
2024/02/03 13:10:59;;;;;;;1.77;0.65;;;;;;;5.95;76.26;99421.94;5045790;28;20025;-68
2024/02/03 13:13:25;;;;;;;1.27;1.23;;;;;;;6.02;75.81;99415.00;5028010;28;20025;-69
2024/02/03 13:15:50;;;;;;;5.38;0.75;;;;;;;5.91;76.04;99409.91;5045959;28;20469;-67
2024/02/03 13:18:16;;;;;;;2.47;0.65;;;;;;;5.90;76.61;99407.34;5044269;28;20021;-67
2024/02/03 13:20:41;;;;;;;2.45;2.25;;;;;;;5.86;76.14;99411.69;5045703;28;20052;-68
2024/02/03 13:23:07;;;;;;;1.58;1.38;;;;;;;5.79;76.49;99402.25;5045461;28;20489;-70
2024/02/03 13:25:32;;;;;;;17.98;3.28;;;;;;;5.80;76.58;99403.97;5027806;28;20021;-69
2024/02/03 13:27:57;;;;;;;9.63;1.67;;;;;;;5.81;76.88;99423.72;5027433;28;20029;-69
2024/02/03 13:30:23;;;;;;;4.60;2.33;;;;;;;5.82;76.91;99428.00;5045205;28;20036;-69
2024/02/03 13:32:48;;;;;;;0.82;0.82;;;;;;;5.77;77.32;99402.28;5027235;28;20021;-69
2024/02/03 13:35:13;;;;;;;2.35;1.15;;;;;;;5.83;76.74;99424.59;5045301;28;20025;-71
2024/02/03 13:37:39;;;;;;;2.95;1.80;;;;;;;5.74;76.67;99447.78;5027345;28;20026;-70
2024/02/03 13:40:06;;;;;;;16.20;2.67;;;;;;;5.70;76.80;99431.50;5045401;28;20021;-68
2024/02/03 13:42:31;;;;;;;3.58;1.95;;;;;;;5.66;77.30;99442.66;5027473;28;20025;-68
2024/02/03 13:44:57;;;;;;;10.45;2.67;;;;;;;5.65;76.85;99446.97;5045402;28;20032;-69
2024/02/03 13:47:23;;;;;;;2.42;1.40;;;;;;;5.54;76.76;99434.13;5045088;28;20104;-69
2024/02/03 13:49:49;;;;;;;9.77;1.77;;;;;;;5.59;77.02;99452.16;5045344;28;20076;-67
2024/02/03 13:52:16;;;;;;;26.25;3.47;;;;;;;5.56;77.14;99459.84;5027657;28;20048;-68
2024/02/03 13:54:41;;;;;;;1.52;1.42;;;;;;;5.55;77.19;99450.44;5045352;28;20128;-67
2024/02/03 13:57:07;;;;;;;4.70;0.70;;;;;;;5.53;77.55;99455.59;5044943;28;20389;-68
2024/02/03 13:59:32;;;;;;;21.35;1.98;;;;;;;5.57;77.40;99451.28;5045194;28;20116;-69
2024/02/03 14:02:00;;;;;;;2.60;0.75;;;;;;;5.57;77.49;99456.44;5045122;28;20033;-68
2024/02/03 14:04:25;;;;;;;10.30;1.52;;;;;;;5.52;77.46;99453.00;5027135;28;20033;-69
2024/02/03 14:06:51;;;;;;;12.90;3.05;;;;;;;5.53;77.25;99444.41;5045201;28;20120;-68
2024/02/03 14:09:16;;;;;;;6.68;2.47;;;;;;;5.49;76.95;99432.44;5027234;28;20454;-70
2024/02/03 14:11:41;;;;;;;10.88;4.55;;;;;;;5.54;77.31;99446.97;5045086;28;20059;-69
2024/02/03 14:14:07;;;;;;;5.95;2.45;;;;;;;5.53;77.01;99449.56;5027359;28;20033;-68
2024/02/03 14:16:32;;;;;;;22.90;1.88;;;;;;;5.45;76.81;99458.19;5044873;28;20029;-68
2024/02/03 14:18:59;;;;;;;5.50;2.28;;;;;;;5.46;76.93;99439.28;5044680;28;20022;-68
2024/02/03 14:21:24;;;;;;;1.10;0.82;;;;;;;5.49;77.49;99435.00;5044877;28;20108;-68
2024/02/03 14:23:49;;;;;;;1.10;1.00;;;;;;;5.46;77.71;99423.00;5027198;28;20021;-68
2024/02/03 14:26:15;;;;;;;1.75;1.58;;;;;;;5.39;77.68;99427.31;5044972;28;20522;-69
2024/02/03 14:28:41;;;;;;;15.90;2.08;;;;;;;5.40;77.79;99451.34;5044925;28;20112;-69
2024/02/03 14:31:06;;;;;;;3.40;1.48;;;;;;;5.29;78.41;99434.19;5049252;28;20064;-68
2024/02/03 14:33:32;;;;;;;8.45;2.63;;;;;;;5.33;77.94;99438.50;5031067;28;20131;-69
2024/02/03 14:35:57;;;;;;;3.15;1.60;;;;;;;5.25;77.80;99460.81;5049179;28;20029;-69
2024/02/03 14:38:23;;;;;;;10.15;2.05;;;;;;;5.25;77.78;99442.78;5048958;28;20018;-68
2024/02/03 14:40:49;;;;;;;2.28;1.25;;;;;;;5.15;77.66;99443.66;5049024;28;20017;-68
2024/02/03 14:43:15;;;;;;;3.92;2.00;;;;;;;5.16;78.06;99445.41;5049035;28;20021;-68
2024/02/03 14:45:40;;;;;;;6.82;1.17;;;;;;;5.11;77.98;99460.84;5048704;28;20021;-69
2024/02/03 14:48:05;;;;;;;6.80;2.83;;;;;;;5.18;77.38;99459.09;5048531;28;20100;-69
2024/02/03 14:50:31;;;;;;;0.40;0.40;;;;;;;5.04;77.41;99459.97;5048694;28;20021;-69
2024/02/03 14:52:56;;;;;;;8.63;1.00;;;;;;;5.04;77.12;99467.69;5048746;28;20072;-69
2024/02/03 14:55:22;;;;;;;2.58;1.42;;;;;;;5.01;76.46;99480.56;5048811;28;20065;-68
2024/02/03 14:57:47;;;;;;;2.45;2.15;;;;;;;4.94;76.46;99472.00;5048439;28;20109;-69
2024/02/03 15:00:13;;;;;;;3.08;2.80;;;;;;;4.91;76.54;99478.84;5048511;28;20097;-68
2024/02/03 15:02:38;;;;;;;4.47;0.75;;;;;;;4.88;76.45;99490.00;5048388;28;20022;-69
2024/02/03 15:05:05;;;;;;;0.57;0.40;;;;;;;4.98;76.57;99492.56;5030653;28;20028;-70
2024/02/03 15:07:33;;;;;;;1.63;1.52;;;;;;;4.79;76.47;99477.13;5048609;28;20013;-68
2024/02/03 15:10:00;;;;;;;4.30;2.20;;;;;;;4.83;76.69;99496.84;5030457;28;20059;-68
2024/02/03 15:12:29;;;;;;;0.85;0.85;;;;;;;4.77;76.58;99471.13;5048324;28;20034;-68
2024/02/03 15:14:58;;;;;;;2.45;1.48;;;;;;;4.77;76.50;99482.28;5048285;28;20048;-68
2024/02/03 15:17:23;;;;;;;0.45;0.45;;;;;;;4.79;76.39;99487.44;5047863;28;20028;-69
2024/02/03 15:19:49;;;;;;;0.65;0.65;;;;;;;4.73;76.41;99477.13;5048069;28;20088;-68
2024/02/03 15:22:14;;;;;;;2.25;1.70;;;;;;;4.66;76.46;99483.97;5048040;28;20112;-68
2024/02/03 15:24:40;;;;;;;13.77;1.25;;;;;;;4.72;76.39;99496.84;5048051;28;20017;-69
2024/02/03 15:27:05;;;;;;;1.13;0.88;;;;;;;4.69;76.81;99471.13;5047879;28;20018;-69
2024/02/03 15:29:31;;;;;;;8.43;1.52;;;;;;;4.66;76.98;99482.28;5029756;28;20021;-68
2024/02/03 15:31:58;;;;;;;3.90;1.58;;;;;;;4.68;77.25;99488.25;5047877;28;20021;-68
2024/02/03 15:34:23;;;;;;;15.43;1.00;;;;;;;4.60;77.76;99469.38;5047835;28;20089;-67
2024/02/03 15:36:49;;;;;;;12.73;2.05;;;;;;;4.63;78.06;99479.72;5047692;28;20029;-67
2024/02/03 15:39:14;;;;;;;15.98;2.10;;;;;;;4.57;77.84;99477.97;5047399;28;20022;-68
2024/02/03 15:41:40;;;;;;;0.40;0.40;;;;;;;4.50;78.36;99476.25;5046643;28;20029;-67
2024/02/03 15:44:05;;;;;;;0.63;0.63;;;;;;;4.55;78.07;99481.41;5029812;28;20024;-67
2024/02/03 15:46:31;;;;;;;4.10;1.15;;;;;;;4.47;78.18;99487.38;5013407;28;20551;-67
2024/02/03 15:48:56;;;;;;;0.60;0.60;;;;;;;4.47;78.67;99471.13;5047379;28;20021;-68
2024/02/03 15:51:21;;;;;;;1.52;1.42;;;;;;;4.50;78.84;99472.81;5029589;28;20025;-67
2024/02/03 15:53:47;;;;;;;23.98;2.13;;;;;;;4.49;78.92;99483.97;5047390;28;20031;-68
2024/02/03 15:56:13;;;;;;;0.80;0.80;;;;;;;4.57;78.71;99484.81;5047475;28;20023;-69
2024/02/03 15:58:38;;;;;;;1.20;1.20;;;;;;;4.42;79.17;99477.94;5046993;28;20128;-67
2024/02/03 16:01:04;;;;;;;0.80;0.80;;;;;;;4.44;79.16;99463.41;5047328;28;20500;-68
2024/02/03 16:03:31;;;;;;;2.28;1.58;;;;;;;4.49;79.77;99489.09;5047117;28;20021;-68
2024/02/03 16:05:57;;;;;;;3.28;1.13;;;;;;;4.40;80.02;99485.66;5029656;28;20025;-68
2024/02/03 16:08:22;;;;;;;6.93;1.10;;;;;;;4.41;79.83;99486.53;5029177;28;20087;-67
2024/02/03 16:10:48;;;;;;;6.65;1.95;;;;;;;4.37;80.12;99492.50;5029186;28;20026;-68
2024/02/03 16:13:15;;;;;;;3.03;2.83;;;;;;;4.32;80.54;99498.50;5047003;28;20021;-68
2024/02/03 16:15:41;;;;;;;3.95;2.63;;;;;;;4.32;80.67;99487.34;5046940;28;20044;-68
2024/02/03 16:18:10;;;;;;;3.22;2.08;;;;;;;4.26;80.64;99477.94;5046702;28;20017;-69
2024/02/03 16:20:35;;;;;;;12.55;2.58;;;;;;;4.30;81.11;99473.63;5028881;28;20029;-65
2024/02/03 16:23:00;;;;;;;2.38;1.52;;;;;;;4.33;81.26;99473.63;5029051;28;20033;-64
2024/02/03 16:25:26;;;;;;;1.60;1.50;;;;;;;4.38;81.34;99469.38;5046819;28;20025;-64
2024/02/03 16:27:51;;;;;;;0.57;0.57;;;;;;;4.41;81.30;99471.94;5028838;28;20458;-66
2024/02/03 16:30:17;;;;;;;5.55;1.48;;;;;;;4.48;81.47;99480.53;5046575;28;20080;-64
2024/02/03 16:32:42;;;;;;;3.95;1.65;;;;;;;4.50;81.19;99472.81;5028653;28;20093;-63
2024/02/03 16:35:07;;;;;;;2.42;1.45;;;;;;;4.42;80.82;99473.69;5046458;28;20025;-63
2024/02/03 16:37:33;;;;;;;5.25;2.95;;;;;;;4.39;80.64;99465.09;5046836;28;20029;-65
2024/02/03 16:39:58;;;;;;;0.60;0.60;;;;;;;4.39;80.63;99478.81;5046010;28;20100;-65
2024/02/03 16:42:23;;;;;;;0.60;0.60;;;;;;;4.32;80.90;99470.22;5028446;28;20037;-64
2024/02/03 16:44:49;;;;;;;17.48;0.98;;;;;;;4.26;81.16;99462.50;5046143;28;20021;-64
2024/02/03 16:47:14;;;;;;;9.77;2.60;;;;;;;4.21;80.78;99446.22;5028183;28;20040;-63
2024/02/03 16:49:40;;;;;;;0.40;0.40;;;;;;;4.18;80.63;99444.50;5046247;28;20049;-65
2024/02/03 16:52:05;;;;;;;1.98;1.30;;;;;;;4.08;80.87;99453.91;5045959;28;20094;-64
2024/02/03 16:54:30;;;;;;;12.40;2.40;;;;;;;4.14;80.57;99454.78;5028143;28;20496;-64
2024/02/03 16:56:56;;;;;;;16.30;2.35;;;;;;;4.07;80.44;99452.16;5045869;28;20068;-64
2024/02/03 16:59:21;;;;;;;1.90;1.42;;;;;;;4.11;80.76;99462.44;5045896;28;20028;-64
2024/02/03 17:01:47;;;;;;;0.90;0.82;;;;;;;4.05;80.49;99460.72;5046075;28;20466;-64
2024/02/03 17:04:18;;;;;;;5.97;1.50;;;;;;;4.08;80.70;99468.44;5028161;28;20017;-65
2024/02/03 17:06:44;;;;;;;1.77;0.77;;;;;;;4.07;80.73;99464.16;5045784;28;20036;-63
2024/02/03 17:09:09;;;;;;;0.73;0.73;;;;;;;4.05;81.01;99479.56;5045819;28;20026;-65
2024/02/03 17:11:34;;;;;;;2.35;1.50;;;;;;;4.09;80.66;99471.00;5045622;28;20429;-64
2024/02/03 17:14:00;;;;;;;1.05;0.57;;;;;;;4.01;80.65;99454.72;5045754;28;20029;-65
2024/02/03 17:16:25;;;;;;;2.28;0.90;;;;;;;4.03;81.07;99454.72;5045886;28;20048;-64
2024/02/03 17:18:50;;;;;;;0.47;0.47;;;;;;;4.07;80.66;99456.47;5045386;28;20072;-64
2024/02/03 17:21:16;;;;;;;10.93;0.73;;;;;;;4.06;81.01;99457.28;5045793;28;20056;-65
2024/02/03 17:23:41;;;;;;;6.05;3.30;;;;;;;3.99;80.97;99470.97;5045646;28;20021;-64
2024/02/03 17:26:07;;;;;;;1.38;1.27;;;;;;;4.00;81.04;99470.13;5045623;28;20109;-63
2024/02/03 17:28:32;;;;;;;16.77;1.65;;;;;;;4.00;80.94;99467.56;5045405;28;20026;-63
2024/02/03 17:30:57;;;;;;;0.73;0.73;;;;;;;3.99;81.01;99470.97;5045690;28;20101;-64
2024/02/03 17:33:24;;;;;;;14.15;2.72;;;;;;;3.97;80.87;99469.28;5045162;28;20453;-64
2024/02/03 17:35:50;;;;;;;0.90;0.90;;;;;;;4.04;81.15;99466.72;5045454;28;20022;-64
2024/02/03 17:38:15;;;;;;;1.42;1.33;;;;;;;4.07;80.99;99462.44;5027749;28;20022;-63
2024/02/03 17:40:41;;;;;;;1.30;1.10;;;;;;;4.10;81.21;99453.91;5045398;28;20033;-65
2024/02/03 17:43:06;;;;;;;8.07;1.52;;;;;;;4.08;81.55;99445.31;5045354;28;20040;-66
2024/02/03 17:45:31;;;;;;;2.03;1.88;;;;;;;4.06;81.50;99459.88;5045359;28;20117;-65
2024/02/03 17:47:56;;;;;;;2.78;2.58;;;;;;;4.11;82.07;99455.59;5045124;28;20026;-65
2024/02/03 17:50:22;;;;;;;0.73;0.73;;;;;;;4.07;82.30;99461.59;5045238;28;20026;-66
2024/02/03 17:52:47;;;;;;;2.10;1.83;;;;;;;4.05;82.42;99471.88;5027506;28;20428;-65
2024/02/03 17:55:13;;;;;;;10.85;1.15;;;;;;;4.05;82.44;99465.88;5027442;28;20029;-66
2024/02/03 17:57:38;;;;;;;0.75;0.75;;;;;;;4.06;82.44;99465.88;5044812;28;20041;-66
2024/02/03 18:00:04;;;;;;;1.55;1.45;;;;;;;4.03;81.65;99468.44;5044946;28;20036;-65
2024/02/03 18:02:30;;;;;;;2.00;1.10;;;;;;;4.06;81.02;99483.84;5044963;28;20036;-65
2024/02/03 18:04:57;;;;;;;4.22;1.20;;;;;;;4.04;80.31;99497.56;5044682;28;20049;-64
2024/02/03 18:07:23;;;;;;;0.95;0.80;;;;;;;4.04;79.92;99493.25;5044777;28;20152;-64
2024/02/03 18:09:48;;;;;;;1.48;0.82;;;;;;;4.10;79.16;99497.56;5044894;28;20022;-64
2024/02/03 18:12:15;;;;;;;18.20;1.77;;;;;;;4.14;78.73;99513.88;5044921;28;20110;-64
2024/02/03 18:14:41;;;;;;;1.90;1.30;;;;;;;4.07;78.49;99512.97;5027062;28;20402;-64
2024/02/03 18:17:06;;;;;;;0.70;0.68;;;;;;;4.19;78.19;99517.28;5044918;28;20488;-64
2024/02/03 18:19:32;;;;;;;0.40;0.40;;;;;;;4.15;78.45;99516.44;5044694;28;20030;-65
2024/02/03 18:21:57;;;;;;;1.52;1.23;;;;;;;4.24;78.63;99512.16;5044885;28;20053;-64
2024/02/03 18:24:26;;;;;;;0.90;0.57;;;;;;;4.25;78.13;99490.78;5044803;28;20041;-65
2024/02/03 18:26:51;;;;;;;0.68;0.68;;;;;;;4.29;78.66;99497.63;5026945;28;20026;-65
2024/02/03 18:29:16;;;;;;;3.75;2.00;;;;;;;4.32;78.89;99495.06;5044374;28;20026;-64
2024/02/03 18:31:42;;;;;;;0.40;0.40;;;;;;;4.34;79.21;99504.47;5044819;28;20075;-64
2024/02/03 18:34:07;;;;;;;1.10;0.70;;;;;;;4.33;79.71;99505.34;5044656;28;20025;-63
2024/02/03 18:36:32;;;;;;;4.53;2.22;;;;;;;4.37;80.01;99482.22;5044798;28;20033;-64
2024/02/03 18:38:58;;;;;;;19.08;1.83;;;;;;;4.43;80.01;99471.94;5044669;28;20021;-65
2024/02/03 18:41:23;;;;;;;6.53;1.27;;;;;;;4.45;80.19;99488.25;5026915;28;20092;-65
2024/02/03 18:43:48;;;;;;;2.58;1.25;;;;;;;4.40;80.44;99472.81;5026742;28;20045;-64
2024/02/03 18:46:14;;;;;;;9.25;2.67;;;;;;;4.37;80.55;99470.22;5027101;28;20029;-64
2024/02/03 18:48:39;;;;;;;3.42;1.40;;;;;;;4.41;80.78;99477.09;5044143;28;20060;-64
2024/02/03 18:51:05;;;;;;;1.33;1.30;;;;;;;4.43;80.84;99482.22;5044738;28;20025;-65
2024/02/03 18:53:31;;;;;;;5.93;2.38;;;;;;;4.45;80.81;99462.53;5044545;28;20030;-65
2024/02/03 18:55:57;;;;;;;0.65;0.65;;;;;;;4.42;80.86;99463.41;5044603;28;20025;-65
2024/02/03 18:58:22;;;;;;;1.75;1.30;;;;;;;4.37;80.75;99447.09;5044647;28;20052;-65
2024/02/03 19:00:47;;;;;;;1.38;1.27;;;;;;;4.37;80.73;99438.53;5044193;28;20029;-65
2024/02/03 19:03:13;;;;;;;30.67;3.33;;;;;;;4.38;80.72;99458.25;5026729;28;20059;-65
2024/02/03 19:05:38;;;;;;;10.30;2.45;;;;;;;4.32;80.84;99461.66;5044618;28;20025;-64
2024/02/03 19:08:04;;;;;;;22.13;2.42;;;;;;;4.28;80.76;99462.50;5044499;28;20029;-66
2024/02/03 19:10:29;;;;;;;0.85;0.85;;;;;;;4.21;80.85;99453.94;5026365;28;20048;-65
2024/02/03 19:12:55;;;;;;;1.15;1.08;;;;;;;4.20;80.69;99468.47;5044452;28;20100;-65
2024/02/03 19:15:20;;;;;;;1.65;1.35;;;;;;;4.21;80.61;99459.06;5045596;28;20477;-64
2024/02/03 19:17:45;;;;;;;9.20;3.33;;;;;;;4.02;80.63;99450.44;5048017;28;20026;-66
2024/02/03 19:20:11;;;;;;;4.20;3.80;;;;;;;4.17;80.58;99463.31;5047888;28;20497;-65
2024/02/03 19:22:36;;;;;;;2.88;2.67;;;;;;;4.17;80.40;99465.91;5030243;28;20562;-65
2024/02/03 19:25:02;;;;;;;0.40;0.40;;;;;;;4.22;80.18;99463.34;5047907;28;20478;-64
2024/02/03 19:27:27;;;;;;;3.63;1.42;;;;;;;4.24;80.05;99465.91;5030174;28;20033;-66
2024/02/03 19:29:53;;;;;;;7.25;2.70;;;;;;;4.33;80.12;99474.50;5047820;28;20025;-65
2024/02/03 19:32:18;;;;;;;0.43;0.43;;;;;;;4.37;79.81;99472.81;5047948;28;20069;-65
2024/02/03 19:34:44;;;;;;;1.38;1.25;;;;;;;4.43;79.45;99470.25;5047722;28;20033;-65
2024/02/03 19:37:09;;;;;;;5.18;1.65;;;;;;;4.45;79.13;99459.97;5047953;28;20025;-65
2024/02/03 19:39:35;;;;;;;0.40;0.40;;;;;;;4.50;79.12;99470.25;5047551;28;20041;-65
2024/02/03 19:42:00;;;;;;;0.55;0.55;;;;;;;4.40;78.93;99459.09;5029939;28;20025;-65
2024/02/03 19:44:25;;;;;;;0.93;0.93;;;;;;;4.37;79.01;99451.38;5029740;28;20022;-65
2024/02/03 19:46:51;;;;;;;21.67;1.83;;;;;;;4.58;78.50;99477.09;5047452;28;20029;-65
2024/02/03 19:49:17;;;;;;;1.40;0.75;;;;;;;4.55;78.85;99474.53;5047287;28;20041;-65
2024/02/03 19:51:43;;;;;;;0.80;0.80;;;;;;;4.58;78.81;99469.38;5029747;28;20112;-65
2024/02/03 19:54:09;;;;;;;13.38;2.28;;;;;;;4.57;78.08;99462.53;5047607;28;20060;-64
2024/02/03 19:56:35;;;;;;;4.00;2.13;;;;;;;4.60;77.95;99464.25;5047238;28;20091;-65
2024/02/03 19:59:00;;;;;;;1.85;1.75;;;;;;;4.60;78.06;99459.09;5047157;28;20033;-64
2024/02/03 20:01:25;;;;;;;4.70;1.40;;;;;;;4.62;78.13;99439.41;5047330;28;20102;-64
2024/02/03 20:03:51;;;;;;;1.58;0.93;;;;;;;4.60;77.90;99451.41;5047059;28;20040;-65
2024/02/03 20:06:17;;;;;;;8.15;0.90;;;;;;;4.61;77.70;99437.72;5047219;28;20026;-65
2024/02/03 20:08:43;;;;;;;1.05;1.05;;;;;;;4.61;78.20;99440.28;5046928;28;20484;-64
2024/02/03 20:11:09;;;;;;;3.75;1.75;;;;;;;4.56;77.92;99434.25;5029225;28;20036;-65
2024/02/03 20:13:34;;;;;;;12.23;2.80;;;;;;;4.54;77.85;99436.84;5046914;28;20093;-65
2024/02/03 20:16:03;;;;;;;5.47;3.22;;;;;;;4.49;77.97;99437.69;5046986;28;20022;-65
2024/02/03 20:18:28;;;;;;;2.67;1.83;;;;;;;4.52;77.94;99437.69;5029039;28;20097;-65
2024/02/03 20:20:54;;;;;;;44.70;3.40;;;;;;;4.51;78.12;99444.53;5047044;28;20033;-64
2024/02/03 20:23:19;;;;;;;6.20;2.17;;;;;;;4.48;78.21;99429.13;5046814;28;20389;-64
2024/02/03 20:25:44;;;;;;;9.95;2.22;;;;;;;4.46;78.18;99408.56;5046805;28;20049;-64
2024/02/03 20:28:10;;;;;;;17.10;1.70;;;;;;;4.49;78.35;99404.28;5028444;28;20025;-66